sensor_id;sensor_type;location;lat;lon;timestamp;pressure;altitude;pressure_sealevel;temperature;humidity
67931;BME280;63902;52.000;5.954;2023-11-18T00:00:17;102002.50;;;3.66;100.00
67931;BME280;63902;52.000;5.954;2023-11-18T00:01:18;102002.50;;;3.68;100.00
67931;BME280;63902;52.000;5.954;2023-11-18T00:02:18;102000.72;;;3.67;100.00
67931;BME280;63902;52.000;5.954;2023-11-18T00:03:19;102000.72;;;3.67;100.00
67931;BME280;63902;52.000;5.954;2023-11-18T00:04:19;101997.25;;;3.66;100.00
67931;BME280;63902;52.000;5.954;2023-11-18T00:05:20;101998.13;;;3.68;100.00
67931;BME280;63902;52.000;5.954;2023-11-18T00:06:22;101963.03;;;3.49;100.00
67931;BME280;63902;52.000;5.954;2023-11-18T00:07:22;101994.63;;;3.69;100.00
67931;BME280;63902;52.000;5.954;2023-11-18T00:08:23;101983.22;;;3.63;100.00
67931;BME280;63902;52.000;5.954;2023-11-18T00:09:23;101992.03;;;3.72;100.00
67931;BME280;63902;52.000;5.954;2023-11-18T00:10:24;101995.53;;;3.74;100.00
67931;BME280;63902;52.000;5.954;2023-11-18T00:11:24;101991.16;;;3.72;100.00
67931;BME280;63902;52.000;5.954;2023-11-18T00:12:25;101992.94;;;3.76;100.00
67931;BME280;63902;52.000;5.954;2023-11-18T00:13:25;101998.19;;;3.77;100.00
67931;BME280;63902;52.000;5.954;2023-11-18T00:14:26;101992.09;;;3.78;100.00
67931;BME280;63902;52.000;5.954;2023-11-18T00:15:26;101999.06;;;3.79;100.00
67931;BME280;63902;52.000;5.954;2023-11-18T00:16:27;101994.69;;;3.80;100.00
67931;BME280;63902;52.000;5.954;2023-11-18T00:17:27;101999.06;;;3.79;100.00
67931;BME280;63902;52.000;5.954;2023-11-18T00:18:28;101994.69;;;3.77;100.00
67931;BME280;63902;52.000;5.954;2023-11-18T00:19:28;101999.06;;;3.79;100.00
67931;BME280;63902;52.000;5.954;2023-11-18T00:20:28;101994.72;;;3.78;100.00
67931;BME280;63902;52.000;5.954;2023-11-18T00:21:30;101995.56;;;3.80;100.00
67931;BME280;63902;52.000;5.954;2023-11-18T00:22:31;101995.56;;;3.80;100.00
67931;BME280;63902;52.000;5.954;2023-11-18T00:23:31;101995.59;;;3.82;100.00
67931;BME280;63902;52.000;5.954;2023-11-18T00:24:32;101994.72;;;3.83;100.00
67931;BME280;63902;52.000;5.954;2023-11-18T00:25:32;101992.13;;;3.85;100.00
67931;BME280;63902;52.000;5.954;2023-11-18T00:26:33;101995.59;;;3.85;100.00
67931;BME280;63902;52.000;5.954;2023-11-18T00:27:34;101987.75;;;3.85;100.00
67931;BME280;63902;52.000;5.954;2023-11-18T00:28:35;101983.34;;;3.79;100.00
67931;BME280;63902;52.000;5.954;2023-11-18T00:29:35;101991.22;;;3.83;100.00
67931;BME280;63902;52.000;5.954;2023-11-18T00:30:36;101989.44;;;3.80;100.00
67931;BME280;63902;52.000;5.954;2023-11-18T00:31:36;101981.59;;;3.83;100.00
67931;BME280;63902;52.000;5.954;2023-11-18T00:32:37;101993.88;;;3.84;100.00
67931;BME280;63902;52.000;5.954;2023-11-18T00:33:37;101997.34;;;3.83;100.00
67931;BME280;63902;52.000;5.954;2023-11-18T00:34:38;101998.22;;;3.84;100.00
67931;BME280;63902;52.000;5.954;2023-11-18T00:35:38;101991.25;;;3.84;100.00
67931;BME280;63902;52.000;5.954;2023-11-18T00:36:40;101992.97;;;3.85;100.00
67931;BME280;63902;52.000;5.954;2023-11-18T00:37:41;101984.25;;;3.85;100.00
67931;BME280;63902;52.000;5.954;2023-11-18T00:38:41;101983.34;;;3.86;100.00
67931;BME280;63902;52.000;5.954;2023-11-18T00:39:42;101965.84;;;3.78;100.00
67931;BME280;63902;52.000;5.954;2023-11-18T00:40:42;101985.13;;;3.88;100.00
67931;BME280;63902;52.000;5.954;2023-11-18T00:41:43;101980.75;;;3.89;100.00
67931;BME280;63902;52.000;5.954;2023-11-18T00:42:43;101956.19;;;3.73;100.00
67931;BME280;63902;52.000;5.954;2023-11-18T00:43:44;101981.63;;;3.85;100.00
67931;BME280;63902;52.000;5.954;2023-11-18T00:44:44;101982.50;;;3.85;100.00
67931;BME280;63902;52.000;5.954;2023-11-18T00:45:45;101964.94;;;3.76;100.00
67931;BME280;63902;52.000;5.954;2023-11-18T00:46:45;101975.47;;;3.86;100.00
67931;BME280;63902;52.000;5.954;2023-11-18T00:47:46;101980.72;;;3.86;100.00
67931;BME280;63902;52.000;5.954;2023-11-18T00:48:46;101972.88;;;3.84;100.00
67931;BME280;63902;52.000;5.954;2023-11-18T00:49:47;101976.38;;;3.85;100.00
67931;BME280;63902;52.000;5.954;2023-11-18T00:50:47;101978.09;;;3.86;100.00
67931;BME280;63902;52.000;5.954;2023-11-18T00:51:49;101978.97;;;3.86;100.00
67931;BME280;63902;52.000;5.954;2023-11-18T00:52:49;101973.72;;;3.86;100.00
67931;BME280;63902;52.000;5.954;2023-11-18T00:53:50;101977.25;;;3.85;100.00
67931;BME280;63902;52.000;5.954;2023-11-18T00:54:50;101972.84;;;3.83;100.00
67931;BME280;63902;52.000;5.954;2023-11-18T00:55:51;101975.47;;;3.83;100.00
67931;BME280;63902;52.000;5.954;2023-11-18T00:56:51;101983.34;;;3.83;100.00
67931;BME280;63902;52.000;5.954;2023-11-18T00:57:52;101979.84;;;3.84;100.00
67931;BME280;63902;52.000;5.954;2023-11-18T00:58:52;101983.34;;;3.83;100.00
67931;BME280;63902;52.000;5.954;2023-11-18T00:59:53;101979.81;;;3.80;100.00
67931;BME280;63902;52.000;5.954;2023-11-18T01:00:53;101991.19;;;3.79;100.00
67931;BME280;63902;52.000;5.954;2023-11-18T01:01:54;101985.94;;;3.76;100.00
67931;BME280;63902;52.000;5.954;2023-11-18T01:02:54;101990.31;;;3.76;100.00
67931;BME280;63902;52.000;5.954;2023-11-18T01:03:55;101994.69;;;3.75;100.00
67931;BME280;63902;52.000;5.954;2023-11-18T01:04:55;101989.44;;;3.75;100.00
67931;BME280;63902;52.000;5.954;2023-11-18T01:05:55;101992.94;;;3.76;100.00
67931;BME280;63902;52.000;5.954;2023-11-18T01:06:57;101992.06;;;3.75;100.00
67931;BME280;63902;52.000;5.954;2023-11-18T01:07:58;101989.44;;;3.74;100.00
67931;BME280;63902;52.000;5.954;2023-11-18T01:08:58;101988.53;;;3.75;100.00
67931;BME280;63902;52.000;5.954;2023-11-18T01:09:59;101990.28;;;3.74;100.00
67931;BME280;63902;52.000;5.954;2023-11-18T01:10:59;101992.91;;;3.74;100.00
67931;BME280;63902;52.000;5.954;2023-11-18T01:12:00;101998.16;;;3.74;100.00
67931;BME280;63902;52.000;5.954;2023-11-18T01:13:00;101999.06;;;3.76;100.00
67931;BME280;63902;52.000;5.954;2023-11-18T01:14:01;101991.16;;;3.72;100.00
67931;BME280;63902;52.000;5.954;2023-11-18T01:15:02;102002.59;;;3.78;100.00
67931;BME280;63902;52.000;5.954;2023-11-18T01:16:03;101999.94;;;3.75;100.00
67931;BME280;63902;52.000;5.954;2023-11-18T01:17:04;102003.44;;;3.77;100.00
67931;BME280;63902;52.000;5.954;2023-11-18T01:18:04;102004.31;;;3.78;100.00
67931;BME280;63902;52.000;5.954;2023-11-18T01:19:05;102010.47;;;3.78;100.00
67931;BME280;63902;52.000;5.954;2023-11-18T01:20:07;102011.31;;;3.77;100.00
67931;BME280;63902;52.000;5.954;2023-11-18T01:21:07;102007.81;;;3.75;100.00
67931;BME280;63902;52.000;5.954;2023-11-18T01:22:09;102011.31;;;3.77;100.00
67931;BME280;63902;52.000;5.954;2023-11-18T01:23:10;102006.06;;;3.77;100.00
67931;BME280;63902;52.000;5.954;2023-11-18T01:24:10;102016.56;;;3.77;100.00
67931;BME280;63902;52.000;5.954;2023-11-18T01:25:11;101994.66;;;3.71;100.00
67931;BME280;63902;52.000;5.954;2023-11-18T01:26:11;102001.66;;;3.72;100.00
67931;BME280;63902;52.000;5.954;2023-11-18T01:27:12;102006.06;;;3.77;100.00
67931;BME280;63902;52.000;5.954;2023-11-18T01:28:12;102009.56;;;3.78;100.00
67931;BME280;63902;52.000;5.954;2023-11-18T01:29:13;102012.19;;;3.78;100.00
67931;BME280;63902;52.000;5.954;2023-11-18T01:30:14;101993.75;;;3.69;100.00
67931;BME280;63902;52.000;5.954;2023-11-18T01:31:14;102008.69;;;3.77;100.00
67931;BME280;63902;52.000;5.954;2023-11-18T01:32:15;102007.84;;;3.78;100.00
67931;BME280;63902;52.000;5.954;2023-11-18T01:33:15;102013.94;;;3.79;100.00
67931;BME280;63902;52.000;5.954;2023-11-18T01:34:16;102004.31;;;3.79;100.00
67931;BME280;63902;52.000;5.954;2023-11-18T01:35:16;102012.19;;;3.79;100.00
67931;BME280;63902;52.000;5.954;2023-11-18T01:36:17;102017.44;;;3.79;100.00
67931;BME280;63902;52.000;5.954;2023-11-18T01:37:19;102015.69;;;3.80;100.00
67931;BME280;63902;52.000;5.954;2023-11-18T01:38:19;102016.56;;;3.80;100.00
67931;BME280;63902;52.000;5.954;2023-11-18T01:39:20;102015.72;;;3.81;100.00
67931;BME280;63902;52.000;5.954;2023-11-18T01:40:20;102014.81;;;3.79;100.00
67931;BME280;63902;52.000;5.954;2023-11-18T01:41:21;102017.44;;;3.79;100.00
67931;BME280;63902;52.000;5.954;2023-11-18T01:42:21;102010.47;;;3.78;100.00
67931;BME280;63902;52.000;5.954;2023-11-18T01:43:22;102013.94;;;3.77;100.00
67931;BME280;63902;52.000;5.954;2023-11-18T01:44:22;102014.81;;;3.79;100.00
67931;BME280;63902;52.000;5.954;2023-11-18T01:45:23;102000.78;;;3.74;100.00
67931;BME280;63902;52.000;5.954;2023-11-18T01:46:24;101988.53;;;3.72;100.00
67931;BME280;63902;52.000;5.954;2023-11-18T01:47:24;102006.09;;;3.84;100.00
67931;BME280;63902;52.000;5.954;2023-11-18T01:48:25;102012.25;;;3.84;100.00
67931;BME280;63902;52.000;5.954;2023-11-18T01:49:26;101975.38;;;3.64;100.00
67931;BME280;63902;52.000;5.954;2023-11-18T01:50:27;102014.00;;;3.87;100.00
67931;BME280;63902;52.000;5.954;2023-11-18T01:51:29;102011.38;;;3.87;100.00
67931;BME280;63902;52.000;5.954;2023-11-18T01:52:31;102011.41;;;3.90;100.00
67931;BME280;63902;52.000;5.954;2023-11-18T01:53:32;102003.47;;;3.85;100.00
67931;BME280;63902;52.000;5.954;2023-11-18T01:54:34;102000.88;;;3.87;100.00
67931;BME280;63902;52.000;5.954;2023-11-18T01:55:36;101995.66;;;3.90;100.00
67931;BME280;63902;52.000;5.954;2023-11-18T01:56:37;102000.00;;;3.91;100.00
67931;BME280;63902;52.000;5.954;2023-11-18T01:57:38;102003.53;;;3.93;100.00
67931;BME280;63902;52.000;5.954;2023-11-18T01:58:39;101994.75;;;3.89;100.00
67931;BME280;63902;52.000;5.954;2023-11-18T01:59:40;101999.13;;;3.92;100.00
67931;BME280;63902;52.000;5.954;2023-11-18T02:00:41;102000.88;;;3.91;100.00
67931;BME280;63902;52.000;5.954;2023-11-18T02:01:42;101997.38;;;3.91;100.00
67931;BME280;63902;52.000;5.954;2023-11-18T02:02:42;102000.00;;;3.91;100.00
67931;BME280;63902;52.000;5.954;2023-11-18T02:03:43;101997.41;;;3.92;100.00
67931;BME280;63902;52.000;5.954;2023-11-18T02:04:44;101983.38;;;3.89;100.00
67931;BME280;63902;52.000;5.954;2023-11-18T02:05:44;101995.66;;;3.93;100.00
67931;BME280;63902;52.000;5.954;2023-11-18T02:06:45;101984.28;;;3.92;100.00
67931;BME280;63902;52.000;5.954;2023-11-18T02:07:47;101981.66;;;3.92;100.00
67931;BME280;63902;52.000;5.954;2023-11-18T02:08:48;101983.41;;;3.95;100.00
67931;BME280;63902;52.000;5.954;2023-11-18T02:09:48;101986.03;;;3.95;100.00
67931;BME280;63902;52.000;5.954;2023-11-18T02:10:54;101983.41;;;3.95;100.00
67931;BME280;63902;52.000;5.954;2023-11-18T02:12:03;101974.63;;;3.87;100.00
67931;BME280;63902;52.000;5.954;2023-11-18T02:13:12;101973.75;;;3.85;100.00
67931;BME280;63902;52.000;5.954;2023-11-18T02:14:14;101989.56;;;3.95;100.00
67931;BME280;63902;52.000;5.954;2023-11-18T02:15:15;101985.16;;;3.96;100.00
67931;BME280;63902;52.000;5.954;2023-11-18T02:16:17;101986.03;;;3.96;100.00
67931;BME280;63902;52.000;5.954;2023-11-18T02:17:21;101982.53;;;3.94;100.00
67931;BME280;63902;52.000;5.954;2023-11-18T02:18:24;101963.22;;;3.83;100.00
67931;BME280;63902;52.000;5.954;2023-11-18T02:19:25;101989.53;;;3.97;100.00
67931;BME280;63902;52.000;5.954;2023-11-18T02:20:28;101997.44;;;3.98;100.00
67931;BME280;63902;52.000;5.954;2023-11-18T02:21:29;101960.59;;;3.81;100.00
67931;BME280;63902;52.000;5.954;2023-11-18T02:22:30;101997.44;;;3.98;100.00
67931;BME280;63902;52.000;5.954;2023-11-18T02:23:32;101997.44;;;4.00;100.00
67931;BME280;63902;52.000;5.954;2023-11-18T02:24:33;101994.84;;;4.04;100.00
67931;BME280;63902;52.000;5.954;2023-11-18T02:26:41;101994.81;;;4.06;100.00
67931;BME280;63902;52.000;5.954;2023-11-18T02:27:41;101987.81;;;4.02;100.00
67931;BME280;63902;52.000;5.954;2023-11-18T02:28:42;101990.44;;;4.02;100.00
67931;BME280;63902;52.000;5.954;2023-11-18T02:29:44;101997.47;;;4.04;100.00
67931;BME280;63902;52.000;5.954;2023-11-18T02:30:45;101985.19;;;4.02;100.00
67931;BME280;63902;52.000;5.954;2023-11-18T02:31:49;101998.34;;;4.08;100.00
67931;BME280;63902;52.000;5.954;2023-11-18T02:32:55;101995.72;;;4.08;100.00
67931;BME280;63902;52.000;5.954;2023-11-18T02:34:02;101992.25;;;4.09;100.00
67931;BME280;63902;52.000;5.954;2023-11-18T02:35:10;101996.63;;;4.12;100.00
67931;BME280;63902;52.000;5.954;2023-11-18T02:36:16;101999.25;;;4.13;100.00
67931;BME280;63902;52.000;5.954;2023-11-18T02:37:21;101997.50;;;4.15;100.00
67931;BME280;63902;52.000;5.954;2023-11-18T02:38:29;101982.63;;;4.10;100.00
67931;BME280;63902;52.000;5.954;2023-11-18T02:39:34;101997.50;;;4.17;100.00
67931;BME280;63902;52.000;5.954;2023-11-18T02:40:39;101987.88;;;4.13;100.00
67931;BME280;63902;52.000;5.954;2023-11-18T02:41:42;101997.53;;;4.18;100.00
67931;BME280;63902;52.000;5.954;2023-11-18T02:42:45;101995.78;;;4.19;100.00
67931;BME280;63902;52.000;5.954;2023-11-18T02:43:49;102000.13;;;4.20;100.00
67931;BME280;63902;52.000;5.954;2023-11-18T02:44:52;101995.78;;;4.20;100.00
67931;BME280;63902;52.000;5.954;2023-11-18T02:45:53;101999.28;;;4.19;100.00
67931;BME280;63902;52.000;5.954;2023-11-18T02:46:54;101997.53;;;4.18;100.00
67931;BME280;63902;52.000;5.954;2023-11-18T02:47:54;101982.63;;;4.13;100.00
67931;BME280;63902;52.000;5.954;2023-11-18T02:48:55;101989.63;;;4.20;100.00
67931;BME280;63902;52.000;5.954;2023-11-18T02:49:55;101990.53;;;4.20;100.00
67931;BME280;63902;52.000;5.954;2023-11-18T02:50:56;101984.38;;;4.15;100.00
67931;BME280;63902;52.000;5.954;2023-11-18T02:51:56;101988.78;;;4.21;100.00
67931;BME280;63902;52.000;5.954;2023-11-18T02:52:57;101980.03;;;4.20;100.00
67931;BME280;63902;52.000;5.954;2023-11-18T02:53:57;101985.28;;;4.20;100.00
67931;BME280;63902;52.000;5.954;2023-11-18T02:54:58;101987.03;;;4.21;100.00
67931;BME280;63902;52.000;5.954;2023-11-18T02:55:58;101970.38;;;4.15;100.00
67931;BME280;63902;52.000;5.954;2023-11-18T02:57:00;101982.66;;;4.22;100.00
67931;BME280;63902;52.000;5.954;2023-11-18T02:58:01;101983.50;;;4.19;100.00
67931;BME280;63902;52.000;5.954;2023-11-18T02:59:01;101975.66;;;4.24;100.00
67931;BME280;63902;52.000;5.954;2023-11-18T03:00:02;101972.16;;;4.22;100.00
67931;BME280;63902;52.000;5.954;2023-11-18T03:01:03;101968.63;;;4.20;100.00
67931;BME280;63902;52.000;5.954;2023-11-18T03:02:04;101963.38;;;4.17;100.00
67931;BME280;63902;52.000;5.954;2023-11-18T03:03:04;101973.91;;;4.24;100.00
67931;BME280;63902;52.000;5.954;2023-11-18T03:04:05;101956.38;;;4.16;100.00
67931;BME280;63902;52.000;5.954;2023-11-18T03:05:06;101961.66;;;4.25;100.00
67931;BME280;63902;52.000;5.954;2023-11-18T03:06:07;101960.78;;;4.24;100.00
67931;BME280;63902;52.000;5.954;2023-11-18T03:07:08;101960.78;;;4.26;100.00
67931;BME280;63902;52.000;5.954;2023-11-18T03:08:08;101959.91;;;4.25;100.00
67931;BME280;63902;52.000;5.954;2023-11-18T03:09:09;101957.25;;;4.25;100.00
67931;BME280;63902;52.000;5.954;2023-11-18T03:10:09;101963.44;;;4.26;100.00
67931;BME280;63902;52.000;5.954;2023-11-18T03:11:10;101945.91;;;4.17;100.00
67931;BME280;63902;52.000;5.954;2023-11-18T03:12:12;101951.16;;;4.20;100.00
67931;BME280;63902;52.000;5.954;2023-11-18T03:13:12;101941.50;;;4.12;100.00
67931;BME280;63902;52.000;5.954;2023-11-18T03:14:13;101973.03;;;4.25;100.00
67931;BME280;63902;52.000;5.954;2023-11-18T03:15:14;101964.28;;;4.28;100.00
67931;BME280;63902;52.000;5.954;2023-11-18T03:16:14;101960.78;;;4.24;100.00
67931;BME280;63902;52.000;5.954;2023-11-18T03:17:15;101959.03;;;4.26;100.00
67931;BME280;63902;52.000;5.954;2023-11-18T03:18:15;101954.66;;;4.27;100.00
67931;BME280;63902;52.000;5.954;2023-11-18T03:19:16;101960.78;;;4.28;100.00
67931;BME280;63902;52.000;5.954;2023-11-18T03:20:17;101952.91;;;4.26;100.00
67931;BME280;63902;52.000;5.954;2023-11-18T03:21:17;101960.78;;;4.26;100.00
67931;BME280;63902;52.000;5.954;2023-11-18T03:22:18;101958.19;;;4.26;100.00
67931;BME280;63902;52.000;5.954;2023-11-18T03:23:18;101957.25;;;4.25;100.00
67931;BME280;63902;52.000;5.954;2023-11-18T03:24:19;101959.03;;;4.26;100.00
67931;BME280;63902;52.000;5.954;2023-11-18T03:25:19;101958.19;;;4.26;100.00
67931;BME280;63902;52.000;5.954;2023-11-18T03:26:20;101965.16;;;4.27;100.00
67931;BME280;63902;52.000;5.954;2023-11-18T03:27:22;101962.56;;;4.29;100.00
67931;BME280;63902;52.000;5.954;2023-11-18T03:28:22;101965.19;;;4.29;100.00
67931;BME280;63902;52.000;5.954;2023-11-18T03:29:23;101965.19;;;4.29;100.00
67931;BME280;63902;52.000;5.954;2023-11-18T03:30:23;101967.81;;;4.29;100.00
67931;BME280;63902;52.000;5.954;2023-11-18T03:31:24;101966.03;;;4.28;100.00
67931;BME280;63902;52.000;5.954;2023-11-18T03:32:24;101969.56;;;4.30;100.00
67931;BME280;63902;52.000;5.954;2023-11-18T03:33:25;101967.81;;;4.30;100.00
67931;BME280;63902;52.000;5.954;2023-11-18T03:34:25;101966.94;;;4.30;100.00
67931;BME280;63902;52.000;5.954;2023-11-18T03:35:26;101960.78;;;4.28;100.00
67931;BME280;63902;52.000;5.954;2023-11-18T03:36:26;101964.31;;;4.30;100.00
67931;BME280;63902;52.000;5.954;2023-11-18T03:37:27;101976.56;;;4.31;100.00
67931;BME280;63902;52.000;5.954;2023-11-18T03:38:27;101976.56;;;4.32;100.00
67931;BME280;63902;52.000;5.954;2023-11-18T03:39:28;101985.31;;;4.33;100.00
67931;BME280;63902;52.000;5.954;2023-11-18T03:40:28;101974.81;;;4.33;100.00
67931;BME280;63902;52.000;5.954;2023-11-18T03:41:29;101975.69;;;4.33;100.00
67931;BME280;63902;52.000;5.954;2023-11-18T03:42:31;101971.31;;;4.32;100.00
67931;BME280;63902;52.000;5.954;2023-11-18T03:43:31;101968.69;;;4.34;100.00
67931;BME280;63902;52.000;5.954;2023-11-18T03:44:31;101964.31;;;4.33;100.00
67931;BME280;63902;52.000;5.954;2023-11-18T03:45:32;101966.94;;;4.34;100.00
67931;BME280;63902;52.000;5.954;2023-11-18T03:46:32;101967.81;;;4.35;100.00
67931;BME280;63902;52.000;5.954;2023-11-18T03:47:33;101948.53;;;4.26;100.00
67931;BME280;63902;52.000;5.954;2023-11-18T03:48:33;101972.22;;;4.37;100.00
67931;BME280;63902;52.000;5.954;2023-11-18T03:49:34;101964.31;;;4.36;100.00
67931;BME280;63902;52.000;5.954;2023-11-18T03:50:34;101965.19;;;4.36;100.00
67931;BME280;63902;52.000;5.954;2023-11-18T03:51:35;101971.31;;;4.38;100.00
67931;BME280;63902;52.000;5.954;2023-11-18T03:52:35;101966.97;;;4.37;100.00
67931;BME280;63902;52.000;5.954;2023-11-18T03:53:36;101964.31;;;4.39;100.00
67931;BME280;63902;52.000;5.954;2023-11-18T03:54:36;101958.19;;;4.38;100.00
67931;BME280;63902;52.000;5.954;2023-11-18T03:55:37;101943.28;;;4.31;100.00
67931;BME280;63902;52.000;5.954;2023-11-18T03:56:37;101954.69;;;4.39;100.00
67931;BME280;63902;52.000;5.954;2023-11-18T03:57:39;101942.41;;;4.34;100.00
67931;BME280;63902;52.000;5.954;2023-11-18T03:58:40;101949.44;;;4.41;100.00
67931;BME280;63902;52.000;5.954;2023-11-18T03:59:40;101941.56;;;4.41;100.00
67931;BME280;63902;52.000;5.954;2023-11-18T04:00:41;101941.56;;;4.41;100.00
67931;BME280;63902;52.000;5.954;2023-11-18T04:01:41;101936.31;;;4.38;100.00
67931;BME280;63902;52.000;5.954;2023-11-18T04:02:42;101938.06;;;4.42;100.00
67931;BME280;63902;52.000;5.954;2023-11-18T04:03:42;101915.28;;;4.30;100.00
67931;BME280;63902;52.000;5.954;2023-11-18T04:04:43;101942.47;;;4.43;100.00
67931;BME280;63902;52.000;5.954;2023-11-18T04:05:44;101931.94;;;4.40;100.00
67931;BME280;63902;52.000;5.954;2023-11-18T04:06:44;101921.41;;;4.38;100.00
67931;BME280;63902;52.000;5.954;2023-11-18T04:07:45;101936.31;;;4.44;100.00
67931;BME280;63902;52.000;5.954;2023-11-18T04:08:45;101928.44;;;4.44;100.00
67931;BME280;63902;52.000;5.954;2023-11-18T04:09:46;101924.94;;;4.45;100.00
67931;BME280;63902;52.000;5.954;2023-11-18T04:10:46;101924.06;;;4.46;100.00
67931;BME280;63902;52.000;5.954;2023-11-18T04:11:47;101898.66;;;4.37;100.00
67931;BME280;63902;52.000;5.954;2023-11-18T04:12:49;101917.06;;;4.46;100.00
67931;BME280;63902;52.000;5.954;2023-11-18T04:13:49;101899.53;;;4.38;100.00
67931;BME280;63902;52.000;5.954;2023-11-18T04:14:49;101897.81;;;4.43;100.00
67931;BME280;63902;52.000;5.954;2023-11-18T04:15:50;101917.06;;;4.49;100.00
67931;BME280;63902;52.000;5.954;2023-11-18T04:16:51;101903.91;;;4.48;100.00
67931;BME280;63902;52.000;5.954;2023-11-18T04:17:51;101910.94;;;4.49;100.00
67931;BME280;63902;52.000;5.954;2023-11-18T04:18:52;101907.44;;;4.48;100.00
67931;BME280;63902;52.000;5.954;2023-11-18T04:19:52;101901.28;;;4.48;100.00
67931;BME280;63902;52.000;5.954;2023-11-18T04:20:53;101903.06;;;4.49;100.00
67931;BME280;63902;52.000;5.954;2023-11-18T04:21:53;101897.81;;;4.49;100.00
67931;BME280;63902;52.000;5.954;2023-11-18T04:22:54;101879.41;;;4.38;100.00
67931;BME280;63902;52.000;5.954;2023-11-18T04:23:54;101889.03;;;4.44;100.00
67931;BME280;63902;52.000;5.954;2023-11-18T04:24:55;101879.41;;;4.43;100.00
67931;BME280;63902;52.000;5.954;2023-11-18T04:25:55;101885.53;;;4.49;100.00
67931;BME280;63902;52.000;5.954;2023-11-18T04:26:55;101877.63;;;4.45;100.00
67931;BME280;63902;52.000;5.954;2023-11-18T04:27:57;101885.56;;;4.51;100.00
67931;BME280;63902;52.000;5.954;2023-11-18T04:28:58;101887.28;;;4.52;100.00
67931;BME280;63902;52.000;5.954;2023-11-18T04:29:58;101878.53;;;4.48;100.00
67931;BME280;63902;52.000;5.954;2023-11-18T04:30:59;101894.28;;;4.53;100.00
67931;BME280;63902;52.000;5.954;2023-11-18T04:31:59;101887.28;;;4.54;100.00
67931;BME280;63902;52.000;5.954;2023-11-18T04:33:00;101884.66;;;4.51;100.00
67931;BME280;63902;52.000;5.954;2023-11-18T04:34:00;101882.94;;;4.54;100.00
67931;BME280;63902;52.000;5.954;2023-11-18T04:35:01;101882.94;;;4.54;100.00
67931;BME280;63902;52.000;5.954;2023-11-18T04:36:02;101872.41;;;4.53;100.00
67931;BME280;63902;52.000;5.954;2023-11-18T04:37:03;101867.16;;;4.51;100.00
67931;BME280;63902;52.000;5.954;2023-11-18T04:38:03;101868.91;;;4.52;100.00
67931;BME280;63902;52.000;5.954;2023-11-18T04:39:04;101866.28;;;4.55;100.00
67931;BME280;63902;52.000;5.954;2023-11-18T04:40:06;101869.78;;;4.56;100.00
67931;BME280;63902;52.000;5.954;2023-11-18T04:41:07;101866.28;;;4.55;100.00
67931;BME280;63902;52.000;5.954;2023-11-18T04:42:07;101859.28;;;4.54;100.00
67931;BME280;63902;52.000;5.954;2023-11-18T04:43:09;101828.63;;;4.38;100.00
67931;BME280;63902;52.000;5.954;2023-11-18T04:44:10;101850.50;;;4.52;100.00
67931;BME280;63902;52.000;5.954;2023-11-18T04:45:10;101840.88;;;4.49;100.00
67931;BME280;63902;52.000;5.954;2023-11-18T04:46:11;101857.50;;;4.56;100.00
67931;BME280;63902;52.000;5.954;2023-11-18T04:47:11;101847.88;;;4.54;100.00
67931;BME280;63902;52.000;5.954;2023-11-18T04:48:12;101850.53;;;4.57;100.00
67931;BME280;63902;52.000;5.954;2023-11-18T04:49:12;101847.91;;;4.57;100.00
67931;BME280;63902;52.000;5.954;2023-11-18T04:50:13;101838.25;;;4.57;100.00
67931;BME280;63902;52.000;5.954;2023-11-18T04:51:13;101841.75;;;4.58;100.00
67931;BME280;63902;52.000;5.954;2023-11-18T04:52:14;101840.00;;;4.58;100.00
67931;BME280;63902;52.000;5.954;2023-11-18T04:53:14;101840.88;;;4.59;100.00
67931;BME280;63902;52.000;5.954;2023-11-18T04:54:15;101843.50;;;4.57;100.00
67931;BME280;63902;52.000;5.954;2023-11-18T04:55:15;101847.88;;;4.58;100.00
67931;BME280;63902;52.000;5.954;2023-11-18T04:56:16;101838.25;;;4.57;100.00
67931;BME280;63902;52.000;5.954;2023-11-18T04:57:16;101848.78;;;4.57;100.00
67931;BME280;63902;52.000;5.954;2023-11-18T04:58:18;101847.88;;;4.58;100.00
67931;BME280;63902;52.000;5.954;2023-11-18T04:59:19;101842.63;;;4.58;100.00
67931;BME280;63902;52.000;5.954;2023-11-18T05:00:19;101842.66;;;4.60;100.00
67931;BME280;63902;52.000;5.954;2023-11-18T05:01:20;101845.25;;;4.61;100.00
67931;BME280;63902;52.000;5.954;2023-11-18T05:02:20;101838.25;;;4.62;100.00
67931;BME280;63902;52.000;5.954;2023-11-18T05:03:21;101845.28;;;4.60;100.00
67931;BME280;63902;52.000;5.954;2023-11-18T05:04:22;101834.75;;;4.55;100.00
67931;BME280;63902;52.000;5.954;2023-11-18T05:05:22;101853.13;;;4.61;100.00
67931;BME280;63902;52.000;5.954;2023-11-18T05:06:23;101833.00;;;4.54;100.00
67931;BME280;63902;52.000;5.954;2023-11-18T05:07:23;101847.91;;;4.60;100.00
67931;BME280;63902;52.000;5.954;2023-11-18T05:08:24;101857.53;;;4.64;100.00
67931;BME280;63902;52.000;5.954;2023-11-18T05:09:24;101845.25;;;4.64;100.00
67931;BME280;63902;52.000;5.954;2023-11-18T05:10:25;101847.88;;;4.64;100.00
67931;BME280;63902;52.000;5.954;2023-11-18T05:11:25;101836.47;;;4.59;100.00
67931;BME280;63902;52.000;5.954;2023-11-18T05:12:26;101842.63;;;4.66;100.00
67931;BME280;63902;52.000;5.954;2023-11-18T05:13:28;101847.03;;;4.65;100.00
67931;BME280;63902;52.000;5.954;2023-11-18T05:14:28;101830.38;;;4.57;100.00
67931;BME280;63902;52.000;5.954;2023-11-18T05:15:29;101849.63;;;4.67;100.00
67931;BME280;63902;52.000;5.954;2023-11-18T05:16:29;101847.00;;;4.64;100.00
67931;BME280;63902;52.000;5.954;2023-11-18T05:17:30;101843.50;;;4.66;100.00
67931;BME280;63902;52.000;5.954;2023-11-18T05:18:30;101847.88;;;4.67;100.00
67931;BME280;63902;52.000;5.954;2023-11-18T05:19:31;101844.38;;;4.68;100.00